Southview, Pennsylvania
Current Conditions -  °F | °C
As of 11:51 AM on Tuesday 27 Jan 2015 (Local Time) from KPIT Reporting Station
Light Snow Light Snow  
Wind Chill:   Ceiling: 1600
Heat Index: 21°   Visibility: 7mi
Dew Point: 15°   Wind: 12mph
Humidity: 78%   Direction: 310°NW
Pressure: 29.93"   Gusts: NA
Location:  40.33°N, 80.26°W
Report Text: KPIT 271651Z 31010KT 7SM -SN OVC016 M06/M09 A2993 RMK AO2 SLP161 P0000 T10611094
Loading
Personal Weather Stations






























Interactive Weather Map New forecast layout! Learn more

10-Day Weather Forecast

Advertisements
Track Severe Weather on mobile